Omskiy-107 — UBWE3 — position and weather

sailwx.info

Track history (hours):
 
Tides and Currents Weather Stations Pressure Air Temp Water Temp Dewpoint Dewpoint Depression Visibility Wind Speed Wind Dir Waves Ship Positions

Omskiy-107

Last reported at 2015-Aug-31 18:27 UTC. Time now 2015-Sep-03 08:59 UTC.
Position N 40°57' E 028°54'.

Length 108 m; draft 2.8 m.

Type: Cargo ship. MMSI: 273343220.

Date/timePositionNaut miles runAvg speedWind from/ knotsBaromVisibWave heightAir tempDewpointWater temp
2015-Aug-31 18:27N 40°57' E 028°54'297 5.8
2015-Aug-29 15:10N 43°56' E 034°15'610.4
2015-Aug-29 14:33N 43°59' E 034°23'1010.2
2015-Aug-29 13:34N 44°04' E 034°35'9 9.4
2015-Aug-29 12:34N 44°09' E 034°46'9 8.9
2015-Aug-29 11:33N 44°14' E 034°56'9 8.9
2015-Aug-29 10:34N 44°19' E 035°07'9 8.7
2015-Aug-29 09:34N 44°24' E 035°17'9 9.0
2015-Aug-29 08:34N 44°29' E 035°28'9 9.1
2015-Aug-29 07:33N 44°33' E 035°39'9 9.3
2015-Aug-29 06:34N 44°38' E 035°50'9 9.2
2015-Aug-29 05:33N 44°43' E 036°01'9 9.1
2015-Aug-29 04:34N 44°47' E 036°12'  
Track history (hours):
 
Tides and Currents Weather Stations Pressure Air Temp Water Temp Dewpoint Dewpoint Depression Visibility Wind Speed Wind Dir Waves Ship Positions

Omskiy-107

Last reported at 2015-Aug-31 18:27 UTC. Time now 2015-Sep-03 08:59 UTC.
Position N 40°57' E 028°54'.

Length 108 m; draft 2.8 m.

Type: Cargo ship. MMSI: 273343220.

Date/timePositionNaut miles runAvg speedWind from/ knotsBaromVisibWave heightAir tempDewpointWater temp
2015-Aug-31 18:27N 40°57' E 028°54'297 5.8
2015-Aug-29 15:10N 43°56' E 034°15'610.4
2015-Aug-29 14:33N 43°59' E 034°23'1010.2
2015-Aug-29 13:34N 44°04' E 034°35'9 9.4
2015-Aug-29 12:34N 44°09' E 034°46'9 8.9
2015-Aug-29 11:33N 44°14' E 034°56'9 8.9
2015-Aug-29 10:34N 44°19' E 035°07'9 8.7
2015-Aug-29 09:34N 44°24' E 035°17'9 9.0
2015-Aug-29 08:34N 44°29' E 035°28'9 9.1
2015-Aug-29 07:33N 44°33' E 035°39'9 9.3
2015-Aug-29 06:34N 44°38' E 035°50'9 9.2
2015-Aug-29 05:33N 44°43' E 036°01'9 9.1
2015-Aug-29 04:34N 44°47' E 036°12'  

Dump ship's entire track history